createdAt,value
2022-08-26T00:02:02.057Z,21.28
2022-08-26T00:04:32.498Z,21.25
2022-08-26T00:07:02.668Z,21.25
2022-08-26T00:09:38.912Z,21.23
2022-08-26T00:12:17.505Z,21.19
2022-08-26T00:14:46.586Z,21.13
2022-08-26T00:17:14.726Z,21.09
2022-08-26T00:19:49.102Z,21.05
2022-08-26T00:22:31.355Z,21.02
2022-08-26T00:25:10.559Z,21.02
2022-08-26T00:27:40.108Z,21.03
2022-08-26T00:30:13.637Z,21.02
2022-08-26T00:32:50.352Z,21.00
2022-08-26T00:35:26.085Z,20.99
2022-08-26T00:38:11.117Z,20.97
2022-08-26T00:41:01.573Z,20.93
2022-08-26T00:43:46.160Z,20.90
2022-08-26T00:46:48.732Z,20.87
2022-08-26T00:49:47.954Z,20.86
2022-08-26T00:52:20.138Z,20.84
2022-08-26T00:55:20.517Z,20.81
2022-08-26T00:58:11.502Z,20.84
2022-08-26T01:00:45.243Z,20.85
2022-08-26T01:03:20.269Z,20.84
2022-08-26T01:05:51.192Z,20.78
2022-08-26T01:08:23.438Z,20.73
2022-08-26T01:10:56.418Z,20.69
2022-08-26T01:13:26.547Z,20.66
2022-08-26T01:15:59.383Z,20.65
2022-08-26T01:18:29.430Z,20.63
2022-08-26T01:21:40.545Z,20.61
2022-08-26T01:24:10.712Z,20.57
2022-08-26T01:26:43.349Z,20.54
2022-08-26T01:29:16.366Z,20.51
2022-08-26T01:31:50.283Z,20.50
2022-08-26T01:34:31.191Z,20.49
2022-08-26T01:37:08.007Z,20.45
2022-08-26T01:39:43.079Z,20.41
2022-08-26T01:42:15.646Z,20.41
2022-08-26T01:44:52.583Z,20.39
2022-08-26T01:47:24.435Z,20.36
2022-08-26T01:49:56.345Z,20.35
2022-08-26T01:52:31.618Z,20.34
2022-08-26T01:55:00.754Z,20.30
2022-08-26T01:57:29.633Z,20.26
2022-08-26T02:00:02.172Z,20.24
2022-08-26T02:02:45.214Z,20.23
2022-08-26T02:05:18.608Z,20.20
2022-08-26T02:07:51.290Z,20.19
2022-08-26T02:10:21.204Z,20.19
2022-08-26T02:12:52.103Z,20.17
2022-08-26T02:15:25.105Z,20.13
2022-08-26T02:18:00.899Z,20.11
2022-08-26T02:20:30.049Z,20.06
2022-08-26T02:23:00.201Z,20.00
2022-08-26T02:25:46.711Z,19.95
2022-08-26T02:28:29.278Z,19.92
2022-08-26T02:31:06.533Z,19.90
2022-08-26T02:33:44.103Z,19.87
2022-08-26T02:36:21.498Z,19.85
2022-08-26T02:38:56.035Z,19.79
2022-08-26T02:41:31.766Z,19.76
2022-08-26T02:44:16.257Z,19.72
2022-08-26T02:46:47.808Z,19.67
2022-08-26T02:49:19.538Z,19.66
2022-08-26T02:51:54.386Z,19.65
2022-08-26T02:54:28.423Z,19.63
2022-08-26T02:57:03.462Z,19.58
2022-08-26T02:59:31.931Z,19.54
2022-08-26T03:02:05.864Z,19.51
2022-08-26T03:04:41.095Z,19.48
2022-08-26T03:07:27.695Z,19.44
2022-08-26T03:09:59.721Z,19.40
2022-08-26T03:12:29.810Z,19.36
2022-08-26T03:15:17.562Z,19.33
2022-08-26T03:17:59.102Z,19.32
2022-08-26T03:20:31.771Z,19.31
2022-08-26T03:23:00.495Z,19.27
2022-08-26T03:25:40.851Z,19.19
2022-08-26T03:28:10.487Z,19.13
2022-08-26T03:30:45.110Z,19.15
2022-08-26T03:33:19.587Z,19.16
2022-08-26T03:35:59.956Z,19.15
2022-08-26T03:38:43.549Z,19.15
2022-08-26T03:41:27.147Z,19.15
2022-08-26T03:44:06.622Z,19.14
2022-08-26T03:46:48.391Z,19.14
2022-08-26T03:49:35.633Z,19.16
2022-08-26T03:52:07.933Z,19.18
2022-08-26T03:54:49.468Z,19.18
2022-08-26T03:57:21.852Z,19.19
2022-08-26T03:59:53.712Z,19.21
2022-08-26T04:02:22.321Z,19.17
2022-08-26T04:04:50.841Z,19.14
2022-08-26T04:07:22.899Z,19.10
2022-08-26T04:09:51.131Z,19.08
2022-08-26T04:12:20.043Z,19.05
2022-08-26T04:14:51.877Z,19.02
2022-08-26T04:17:26.829Z,19.00
2022-08-26T04:19:59.655Z,18.99
2022-08-26T04:22:29.287Z,18.96
2022-08-26T04:24:59.999Z,18.94
2022-08-26T04:27:31.722Z,18.92
2022-08-26T04:30:05.441Z,18.91
2022-08-26T04:32:33.602Z,18.91
2022-08-26T04:35:02.484Z,18.93
2022-08-26T04:37:33.669Z,18.92
2022-08-26T04:40:04.321Z,18.91
2022-08-26T04:42:34.237Z,18.91
2022-08-26T04:45:05.863Z,18.92
2022-08-26T04:47:39.378Z,18.93
2022-08-26T04:50:08.916Z,18.96
2022-08-26T04:52:41.454Z,18.96
2022-08-26T04:55:11.641Z,18.99
2022-08-26T04:57:40.296Z,19.01
2022-08-26T05:00:12.068Z,19.04
2022-08-26T05:02:41.192Z,19.08
2022-08-26T05:05:12.367Z,19.10
2022-08-26T05:07:41.113Z,19.12
2022-08-26T05:10:11.921Z,19.14
2022-08-26T05:12:40.463Z,19.19
2022-08-26T05:15:10.404Z,19.23
2022-08-26T05:17:42.447Z,19.27
2022-08-26T05:20:13.663Z,19.30
2022-08-26T05:22:42.904Z,19.32
2022-08-26T05:25:12.364Z,19.35
2022-08-26T05:27:40.915Z,19.39
2022-08-26T05:30:10.856Z,19.43
2022-08-26T05:32:40.523Z,19.46
2022-08-26T05:35:11.306Z,19.51
2022-08-26T05:37:39.350Z,19.60
2022-08-26T05:40:09.228Z,19.68
2022-08-26T05:42:38.906Z,19.73
2022-08-26T05:45:09.227Z,19.78
2022-08-26T05:47:37.665Z,19.80
2022-08-26T05:50:09.394Z,19.83
2022-08-26T05:52:41.227Z,19.88
2022-08-26T05:55:11.599Z,19.93
2022-08-26T05:57:42.874Z,19.96
2022-08-26T06:00:13.489Z,19.98
2022-08-26T06:02:42.142Z,20.02
2022-08-26T06:05:10.009Z,20.06
2022-08-26T06:07:57.875Z,20.07
2022-08-26T06:10:32.496Z,20.10
2022-08-26T06:13:09.215Z,20.14
2022-08-26T06:15:48.488Z,20.22
2022-08-26T06:18:32.851Z,20.28
2022-08-26T06:21:12.314Z,20.33
2022-08-26T06:23:59.696Z,20.38
2022-08-26T06:26:31.484Z,20.45
2022-08-26T06:29:01.708Z,20.52
2022-08-26T06:31:37.835Z,20.58
2022-08-26T06:34:11.116Z,20.64
2022-08-26T06:36:42.180Z,20.73
2022-08-26T06:39:15.223Z,20.83
2022-08-26T06:41:45.402Z,20.90
2022-08-26T06:44:19.225Z,20.96
2022-08-26T06:46:50.423Z,21.02
2022-08-26T06:49:26.968Z,21.09
2022-08-26T06:52:00.132Z,21.15
2022-08-26T06:54:38.870Z,21.21
2022-08-26T06:57:06.897Z,21.28
2022-08-26T06:59:35.173Z,21.34
2022-08-26T07:02:06.453Z,21.40
2022-08-26T07:04:36.181Z,21.47
2022-08-26T07:07:09.692Z,21.55
2022-08-26T07:09:38.984Z,21.62
2022-08-26T07:12:10.214Z,21.69
2022-08-26T07:14:39.673Z,21.76
2022-08-26T07:17:11.050Z,21.84
2022-08-26T07:19:42.713Z,21.94
2022-08-26T07:22:13.375Z,22.01
2022-08-26T07:24:42.637Z,22.10
2022-08-26T07:27:15.129Z,22.16
2022-08-26T07:29:44.105Z,22.24
2022-08-26T07:32:15.258Z,22.32
2022-08-26T07:34:44.049Z,22.42
2022-08-26T07:37:12.910Z,22.52
2022-08-26T07:39:45.836Z,22.61
2022-08-26T07:42:22.825Z,22.70
2022-08-26T07:44:52.422Z,22.82
2022-08-26T07:47:25.627Z,22.92
2022-08-26T07:49:57.710Z,23.03
2022-08-26T07:52:28.313Z,23.14
2022-08-26T07:54:58.259Z,23.25
2022-08-26T07:57:28.435Z,23.38
2022-08-26T07:59:57.492Z,23.51
2022-08-26T08:02:30.473Z,23.61
2022-08-26T08:04:58.638Z,23.74
2022-08-26T08:07:44.207Z,23.88
2022-08-26T08:10:18.697Z,24.01
2022-08-26T08:12:50.894Z,24.14
2022-08-26T08:15:22.204Z,24.28
2022-08-26T08:17:51.674Z,24.39
2022-08-26T08:20:20.653Z,24.48
2022-08-26T08:22:51.809Z,24.58
2022-08-26T08:25:22.607Z,24.67
2022-08-26T08:27:52.683Z,24.78
2022-08-26T08:30:27.683Z,24.89
2022-08-26T08:32:56.775Z,24.99
2022-08-26T08:35:26.681Z,25.05
2022-08-26T08:37:55.549Z,25.15
2022-08-26T08:40:28.034Z,25.24
2022-08-26T08:43:07.200Z,25.34
2022-08-26T08:45:37.985Z,25.41
2022-08-26T08:48:29.661Z,25.48
2022-08-26T08:51:14.155Z,25.57
2022-08-26T08:53:45.922Z,25.67
2022-08-26T08:56:24.354Z,25.77
2022-08-26T08:59:04.917Z,25.86
2022-08-26T09:01:37.696Z,25.97
2022-08-26T09:04:51.572Z,26.06
2022-08-26T09:07:27.871Z,26.14
2022-08-26T09:10:03.659Z,26.22
2022-08-26T09:12:35.318Z,26.31
2022-08-26T09:15:16.593Z,26.41
2022-08-26T09:18:03.013Z,26.51
2022-08-26T09:20:42.023Z,26.59
2022-08-26T09:23:18.326Z,26.69
2022-08-26T09:25:50.543Z,26.75
2022-08-26T09:28:21.865Z,26.82
2022-08-26T09:31:35.474Z,26.91
2022-08-26T09:34:17.269Z,27.04
2022-08-26T09:36:49.766Z,27.14
2022-08-26T09:39:34.224Z,27.23
2022-08-26T09:42:14.312Z,27.33
2022-08-26T09:45:10.541Z,27.42
2022-08-26T09:47:54.795Z,27.51
2022-08-26T09:50:39.162Z,27.59
2022-08-26T09:53:12.670Z,27.69
2022-08-26T09:55:43.682Z,27.77
2022-08-26T09:58:35.525Z,27.85
2022-08-26T10:01:08.270Z,27.97
2022-08-26T10:03:39.279Z,28.07
2022-08-26T10:06:23.436Z,28.14
2022-08-26T10:08:57.587Z,28.22
2022-08-26T10:11:50.698Z,28.32
2022-08-26T10:14:25.816Z,28.42
2022-08-26T10:17:35.447Z,28.53
2022-08-26T10:20:22.696Z,28.67
2022-08-26T10:23:17.464Z,28.78
2022-08-26T10:26:16.723Z,28.87
2022-08-26T10:29:14.333Z,28.97
2022-08-26T10:32:03.399Z,29.07
2022-08-26T10:34:35.460Z,29.16
2022-08-26T10:37:15.726Z,29.26
2022-08-26T10:40:07.865Z,29.33
2022-08-26T10:42:45.455Z,29.38
2022-08-26T10:45:15.667Z,29.47
2022-08-26T10:47:46.456Z,29.53
2022-08-26T10:50:18.167Z,29.60
2022-08-26T10:53:14.188Z,29.70
2022-08-26T10:56:02.410Z,29.81
2022-08-26T10:58:38.227Z,29.92
2022-08-26T11:01:46.987Z,29.99
2022-08-26T11:04:51.261Z,30.06
2022-08-26T11:07:55.227Z,30.12
2022-08-26T11:10:27.611Z,30.22
2022-08-26T11:13:12.280Z,30.27
2022-08-26T11:15:45.995Z,30.34
2022-08-26T11:18:45.180Z,30.41
2022-08-26T11:22:15.346Z,30.48
2022-08-26T11:25:30.887Z,30.50
2022-08-26T11:28:54.922Z,30.56
2022-08-26T11:31:58.241Z,30.65
2022-08-26T11:35:14.041Z,30.72
2022-08-26T11:41:32.397Z,30.98
2022-08-26T11:44:09.376Z,31.09
2022-08-26T11:46:38.353Z,31.19
2022-08-26T11:49:15.162Z,31.33
2022-08-26T11:52:15.392Z,31.47
2022-08-26T11:55:09.782Z,31.64
2022-08-26T11:57:53.769Z,31.84
2022-08-26T12:00:36.283Z,32.01
2022-08-26T12:03:17.183Z,32.20
2022-08-26T12:06:45.856Z,32.32
2022-08-26T12:09:51.970Z,32.53
2022-08-26T12:12:42.919Z,32.69
2022-08-26T12:15:30.652Z,32.91
2022-08-26T12:18:13.355Z,33.10
2022-08-26T12:20:54.341Z,33.29
2022-08-26T12:23:36.461Z,33.48
2022-08-26T12:26:36.573Z,33.65
2022-08-26T12:29:41.330Z,33.84
2022-08-26T12:32:17.660Z,34.06
2022-08-26T12:34:51.008Z,34.29
2022-08-26T12:37:32.384Z,34.48
2022-08-26T12:40:36.190Z,34.65
2022-08-26T12:43:11.071Z,34.83
2022-08-26T12:45:55.174Z,35.01
2022-08-26T12:48:36.281Z,35.24
2022-08-26T12:51:07.791Z,35.41
2022-08-26T12:53:48.870Z,35.54
2022-08-26T12:56:39.962Z,35.73
2022-08-26T12:59:31.929Z,35.92
2022-08-26T13:02:00.674Z,36.14
2022-08-26T13:04:39.893Z,36.26
2022-08-26T13:07:25.277Z,36.41
2022-08-26T13:10:13.245Z,36.58
2022-08-26T13:12:42.992Z,36.59
2022-08-26T13:15:55.040Z,36.58
2022-08-26T13:18:26.631Z,36.57
2022-08-26T13:20:56.656Z,36.63
2022-08-26T13:23:40.625Z,36.73
2022-08-26T13:26:32.868Z,36.99
2022-08-26T13:29:14.954Z,37.23
2022-08-26T13:31:46.363Z,37.49
2022-08-26T13:34:27.326Z,37.76
2022-08-26T13:36:56.531Z,37.93
2022-08-26T13:39:26.348Z,38.12
2022-08-26T13:41:58.639Z,38.29
2022-08-26T13:44:36.433Z,38.53
2022-08-26T13:47:14.983Z,38.85
2022-08-26T13:49:49.673Z,39.03
2022-08-26T13:52:17.907Z,39.11
2022-08-26T13:55:12.037Z,39.21
2022-08-26T13:57:40.152Z,39.43
2022-08-26T14:00:14.604Z,39.59
2022-08-26T14:02:59.302Z,39.55
2022-08-26T14:05:56.739Z,39.54
2022-08-26T14:08:24.913Z,39.62
2022-08-26T14:10:56.893Z,39.73
2022-08-26T14:13:26.193Z,39.84
2022-08-26T14:15:59.740Z,39.94
2022-08-26T14:18:53.667Z,39.95
2022-08-26T14:25:42.880Z,40.17
2022-08-26T14:28:29.562Z,40.16
2022-08-26T14:31:27.314Z,40.07
2022-08-26T14:34:15.572Z,40.02
2022-08-26T14:37:15.532Z,39.95
2022-08-26T14:43:47.346Z,40.32
2022-08-26T14:47:20.311Z,40.59
2022-08-26T14:54:03.370Z,40.51
2022-08-26T14:57:05.175Z,40.54
2022-08-26T14:59:41.188Z,40.52
2022-08-26T15:02:32.668Z,40.63
2022-08-26T15:05:12.063Z,40.71
2022-08-26T15:07:40.105Z,40.84
2022-08-26T15:10:33.355Z,40.92
2022-08-26T15:13:01.703Z,41.17
2022-08-26T15:15:31.455Z,41.36
2022-08-26T15:18:34.090Z,41.47
2022-08-26T15:21:13.068Z,41.72
2022-08-26T15:24:53.707Z,41.99
2022-08-26T15:28:04.855Z,42.18
2022-08-26T15:30:33.963Z,42.22
2022-08-26T15:33:02.127Z,42.32
2022-08-26T15:35:29.997Z,42.41
2022-08-26T15:38:01.315Z,42.49
2022-08-26T15:40:29.678Z,42.50
2022-08-26T15:43:11.414Z,42.51
2022-08-26T15:45:45.646Z,42.49
2022-08-26T15:48:13.610Z,42.38
2022-08-26T15:50:54.666Z,42.29
2022-08-26T15:53:24.403Z,42.22
2022-08-26T15:55:55.388Z,42.18
2022-08-26T15:58:25.871Z,42.10
2022-08-26T16:00:56.276Z,42.06
2022-08-26T16:03:24.322Z,41.97
2022-08-26T16:05:52.212Z,41.80
2022-08-26T16:08:22.842Z,41.65
2022-08-26T16:10:51.532Z,41.50
2022-08-26T16:13:20.380Z,41.31
2022-08-26T16:15:48.945Z,41.31
2022-08-26T16:18:18.200Z,41.27
2022-08-26T16:20:55.293Z,41.26
2022-08-26T16:23:43.267Z,41.24
2022-08-26T16:26:19.976Z,41.19
2022-08-26T16:33:04.997Z,40.85
2022-08-26T16:35:48.335Z,40.74
2022-08-26T16:38:16.610Z,40.72
2022-08-26T16:40:44.783Z,40.61
2022-08-26T16:43:15.387Z,40.56
2022-08-26T16:45:43.692Z,40.47
2022-08-26T16:48:12.070Z,40.31
2022-08-26T16:50:43.262Z,40.11
2022-08-26T16:55:48.740Z,39.64
2022-08-26T16:58:18.527Z,39.51
2022-08-26T17:00:46.903Z,39.40
2022-08-26T17:03:22.360Z,39.18
2022-08-26T17:06:35.556Z,38.81
2022-08-26T17:12:25.650Z,37.79
2022-08-26T17:15:43.623Z,37.42
2022-08-26T17:18:37.978Z,37.02
2022-08-26T17:21:23.483Z,36.59
2022-08-26T17:23:56.537Z,36.13
2022-08-26T17:26:55.592Z,35.70
2022-08-26T17:29:56.339Z,35.15
2022-08-26T17:33:18.682Z,34.62
2022-08-26T17:36:41.877Z,33.90
2022-08-26T17:39:46.532Z,33.37
2022-08-26T17:42:21.929Z,32.83
2022-08-26T17:49:22.925Z,31.98
2022-08-26T17:52:22.367Z,31.62
2022-08-26T17:55:20.817Z,31.33
2022-08-26T17:58:23.791Z,31.08
2022-08-26T18:00:56.763Z,30.81
2022-08-26T18:03:25.935Z,30.61
2022-08-26T18:06:24.195Z,30.37
2022-08-26T18:09:17.112Z,30.13
2022-08-26T18:11:54.996Z,29.94
2022-08-26T18:14:23.012Z,29.75
2022-08-26T18:17:05.333Z,29.57
2022-08-26T18:20:03.087Z,29.36
2022-08-26T18:23:03.365Z,29.12
2022-08-26T18:26:03.216Z,28.89
2022-08-26T18:28:41.646Z,28.62
2022-08-26T18:31:13.497Z,28.42
2022-08-26T18:33:43.694Z,28.28
2022-08-26T18:36:26.064Z,28.17
2022-08-26T18:39:04.745Z,28.04
2022-08-26T18:42:03.402Z,27.92
2022-08-26T18:44:44.425Z,27.78
2022-08-26T18:47:45.294Z,27.63
2022-08-26T18:50:43.818Z,27.51
2022-08-26T18:53:23.997Z,27.38
2022-08-26T18:56:03.986Z,27.25
2022-08-26T19:01:52.701Z,26.98
2022-08-26T19:04:26.396Z,26.88
2022-08-26T19:07:02.795Z,26.78
2022-08-26T19:09:43.753Z,26.67
2022-08-26T19:12:44.417Z,26.56
2022-08-26T19:15:22.521Z,26.44
2022-08-26T19:18:45.567Z,26.32
2022-08-26T19:21:28.012Z,26.16
2022-08-26T19:24:06.630Z,26.06
2022-08-26T19:27:03.330Z,25.95
2022-08-26T19:29:53.814Z,25.82
2022-08-26T19:32:31.886Z,25.70
2022-08-26T19:35:03.867Z,25.60
2022-08-26T19:37:35.648Z,25.51
2022-08-26T19:40:11.838Z,25.42
2022-08-26T19:42:45.088Z,25.34
2022-08-26T19:45:24.352Z,25.25
2022-08-26T19:48:23.946Z,25.17
2022-08-26T19:51:27.363Z,25.09
2022-08-26T19:54:25.588Z,25.00
2022-08-26T19:57:26.482Z,24.91
2022-08-26T20:03:08.835Z,24.73
2022-08-26T20:06:42.878Z,24.64
2022-08-26T20:10:07.031Z,24.54
2022-08-26T20:13:10.621Z,24.40
2022-08-26T20:16:06.270Z,24.33
2022-08-26T20:18:56.133Z,24.24
2022-08-26T20:21:30.175Z,24.18
2022-08-26T20:24:06.177Z,24.11
2022-08-26T20:30:28.520Z,23.97
2022-08-26T20:33:27.108Z,23.92
2022-08-26T20:36:10.437Z,23.82
2022-08-26T20:39:07.792Z,23.80
2022-08-26T20:41:45.684Z,23.70
2022-08-26T20:44:27.056Z,23.67
2022-08-26T20:46:56.905Z,23.60
2022-08-26T20:49:28.341Z,23.54
2022-08-26T20:51:56.653Z,23.48
2022-08-26T20:54:28.517Z,23.41
2022-08-26T20:56:58.946Z,23.34
2022-08-26T20:59:27.776Z,23.26
2022-08-26T21:01:56.351Z,23.17
2022-08-26T21:04:27.594Z,23.08
2022-08-26T21:06:56.794Z,22.99
2022-08-26T21:09:27.629Z,22.91
2022-08-26T21:11:59.616Z,22.84
2022-08-26T21:14:29.090Z,22.79
2022-08-26T21:17:00.037Z,22.77
2022-08-26T21:19:28.327Z,22.73
2022-08-26T21:21:58.671Z,22.71
2022-08-26T21:24:27.965Z,22.67
2022-08-26T21:26:56.932Z,22.59
2022-08-26T21:29:27.633Z,22.49
2022-08-26T21:31:56.437Z,22.33
2022-08-26T21:34:25.340Z,22.21
2022-08-26T21:36:54.248Z,22.11
2022-08-26T21:39:22.675Z,22.01
2022-08-26T21:41:59.065Z,21.94
2022-08-26T21:44:27.729Z,21.88
2022-08-26T21:46:58.488Z,21.84
2022-08-26T21:49:27.588Z,21.79
2022-08-26T21:51:56.876Z,21.77
2022-08-26T21:54:24.854Z,21.74
2022-08-26T21:56:54.784Z,21.71
2022-08-26T21:59:23.180Z,21.67
2022-08-26T22:01:57.090Z,21.64
2022-08-26T22:04:25.840Z,21.60
2022-08-26T22:06:59.832Z,21.54
2022-08-26T22:09:31.203Z,21.49
2022-08-26T22:12:02.552Z,21.46
2022-08-26T22:14:31.650Z,21.43
2022-08-26T22:17:00.102Z,21.41
2022-08-26T22:19:45.750Z,21.34
2022-08-26T22:22:36.984Z,21.35
2022-08-26T22:25:20.130Z,21.32
2022-08-26T22:27:51.871Z,21.30
2022-08-26T22:30:22.646Z,21.26
2022-08-26T22:32:51.182Z,21.23
2022-08-26T22:35:28.965Z,21.20
2022-08-26T22:38:00.046Z,21.19
2022-08-26T22:40:28.895Z,21.18
2022-08-26T22:43:00.269Z,21.17
2022-08-26T22:45:32.513Z,21.15
2022-08-26T22:48:04.802Z,21.14
2022-08-26T22:50:34.015Z,21.13
2022-08-26T22:53:03.266Z,21.11
2022-08-26T22:55:37.596Z,21.10
2022-08-26T22:58:06.566Z,21.08
2022-08-26T23:00:34.866Z,21.06
2022-08-26T23:03:12.885Z,21.02
2022-08-26T23:05:45.266Z,20.95
2022-08-26T23:08:15.555Z,20.88
2022-08-26T23:10:46.890Z,20.81
2022-08-26T23:13:18.722Z,20.76
2022-08-26T23:15:47.451Z,20.70
2022-08-26T23:18:19.408Z,20.66
2022-08-26T23:20:49.156Z,20.62
2022-08-26T23:23:24.532Z,20.58
2022-08-26T23:25:54.808Z,20.54
2022-08-26T23:28:23.922Z,20.51
2022-08-26T23:30:58.298Z,20.48
2022-08-26T23:33:46.789Z,20.46
2022-08-26T23:36:17.859Z,20.42
2022-08-26T23:38:52.741Z,20.39
2022-08-26T23:41:26.162Z,20.36
2022-08-26T23:44:03.587Z,20.33
2022-08-26T23:46:39.643Z,20.31
2022-08-26T23:49:10.926Z,20.29
2022-08-26T23:51:58.530Z,20.28
2022-08-26T23:54:34.203Z,20.27
2022-08-26T23:57:13.125Z,20.25
2022-08-26T23:59:42.572Z,20.23
